Time;durP1;ratioP1;P1;durP2;ratioP2;P2;SDS_P1;SDS_P2;PMS_P1;PMS_P2;Temp;Humidity;BMP_temperature;BMP_pressure;BME280_temperature;BME280_humidity;BME280_pressure;Samples;Min_cycle;Max_cycle;Signal;HPM_P1;HPM_P2
2022/05/28 00:01:27;;;;;;;8.90;7.20;;;;;;;9.45;94.11;98815.53;4017310;87;21092;-83
2022/05/28 00:07:34;;;;;;;11.20;5.97;;;;;;;9.44;93.68;98812.00;4092180;85;21385;-83
2022/05/28 00:13:36;;;;;;;9.53;5.03;;;;;;;9.32;93.47;98809.52;4067858;87;21151;-82
2022/05/28 00:19:37;;;;;;;10.98;5.12;;;;;;;9.26;93.88;98812.94;4074609;87;21693;-82
2022/05/28 00:25:39;;;;;;;9.15;5.47;;;;;;;9.31;94.74;98813.98;4073748;87;21040;-83
2022/05/28 00:31:45;;;;;;;11.33;5.87;;;;;;;9.40;95.00;98818.58;4063390;87;21549;-82
2022/05/28 00:37:50;;;;;;;10.45;5.08;;;;;;;9.31;94.19;98798.39;4071135;87;21054;-82
2022/05/28 00:43:52;;;;;;;11.57;5.65;;;;;;;9.27;94.60;98798.14;4097779;87;21048;-82
2022/05/28 00:49:54;;;;;;;9.88;5.70;;;;;;;9.21;94.46;98781.27;4073679;87;21084;-83
2022/05/28 00:55:56;;;;;;;7.40;4.17;;;;;;;9.13;94.29;98780.97;4075564;86;21063;-82
2022/05/28 01:02:04;;;;;;;7.72;5.00;;;;;;;9.20;95.19;98788.47;4076398;85;21063;-82
2022/05/28 01:08:40;;;;;;;7.00;4.95;;;;;;;9.24;94.95;98792.82;4061327;87;21127;-83
2022/05/28 01:15:12;;;;;;;9.05;5.22;;;;;;;9.24;95.09;98790.66;4009639;87;21128;-82
2022/05/28 01:21:42;;;;;;;8.05;4.50;;;;;;;9.27;94.44;98787.22;3981372;88;21561;-82
2022/05/28 01:27:54;;;;;;;11.08;6.10;;;;;;;9.15;95.19;98782.76;4005186;87;21089;-82
2022/05/28 01:34:00;;;;;;;10.15;5.08;;;;;;;9.29;95.45;98773.95;4012601;87;21130;-82
2022/05/28 01:46:20;;;;;;;7.87;5.42;;;;;;;9.43;95.93;98774.92;4018606;88;21065;-82
2022/05/28 01:52:24;;;;;;;11.93;6.17;;;;;;;9.48;96.14;98765.03;4006218;88;21613;-82
2022/05/28 01:58:25;;;;;;;13.30;5.97;;;;;;;9.54;96.09;98757.27;3997167;88;21108;-82
2022/05/28 02:04:30;;;;;;;15.00;6.30;;;;;;;9.54;96.04;98755.34;4002719;88;21017;-82
2022/05/28 02:10:33;;;;;;;11.38;6.15;;;;;;;9.38;95.12;98759.45;4036508;86;21008;-82
2022/05/28 02:16:51;;;;;;;10.98;6.03;;;;;;;9.21;95.17;98765.45;4083500;87;21888;-82
2022/05/28 02:23:16;;;;;;;13.25;6.70;;;;;;;9.18;95.83;98757.44;4031050;87;21008;-83
2022/05/28 02:29:18;;;;;;;13.98;6.03;;;;;;;9.22;95.73;98763.72;4051182;87;21591;-83
2022/05/28 02:35:19;;;;;;;11.48;5.70;;;;;;;9.18;95.69;98761.53;4051860;87;21635;-82
2022/05/28 02:41:23;;;;;;;10.08;5.97;;;;;;;8.99;95.02;98754.84;4077580;87;21084;-82
2022/05/28 02:47:24;;;;;;;7.37;5.55;;;;;;;8.93;95.46;98760.42;4026691;87;21924;-82
2022/05/28 02:53:25;;;;;;;8.53;5.83;;;;;;;8.86;95.81;98760.34;4034181;87;21640;-83
2022/05/28 02:59:27;;;;;;;11.22;5.92;;;;;;;8.82;95.35;98749.13;4050984;87;21124;-82
2022/05/28 03:05:28;;;;;;;9.93;5.55;;;;;;;8.75;95.78;98754.50;4043762;87;21648;-82
2022/05/28 03:11:48;;;;;;;12.73;6.67;;;;;;;8.84;96.35;98759.91;4059018;86;22239;-83
2022/05/28 03:17:49;;;;;;;10.95;7.00;;;;;;;8.90;96.33;98761.16;4057637;87;21174;-82
2022/05/28 03:23:52;;;;;;;13.70;7.22;;;;;;;8.92;96.36;98758.86;4033714;87;21928;-82
2022/05/28 03:36:11;;;;;;;10.98;5.75;;;;;;;9.09;97.04;98761.03;4053529;86;21147;-83
2022/05/28 03:42:14;;;;;;;9.25;4.87;;;;;;;9.16;96.87;98767.17;4058951;86;21040;-82
2022/05/28 03:48:16;;;;;;;10.90;6.75;;;;;;;9.22;97.08;98767.05;4064676;87;21096;-82
2022/05/28 03:54:19;;;;;;;9.35;6.67;;;;;;;9.31;96.96;98764.81;4038002;87;21128;-82
2022/05/28 04:00:30;;;;;;;9.88;6.92;;;;;;;9.29;96.96;98763.02;4081011;87;21100;-82
2022/05/28 04:06:38;;;;;;;14.87;8.90;;;;;;;9.23;96.80;98772.14;4069297;85;21098;-82
2022/05/28 04:12:40;;;;;;;16.02;8.78;;;;;;;9.20;96.80;98759.80;4018143;84;21079;-82
2022/05/28 04:18:43;;;;;;;22.07;13.20;;;;;;;9.20;96.31;98739.31;4021356;87;21262;-83
2022/05/28 04:24:55;;;;;;;9.83;7.85;;;;;;;9.35;96.90;98736.37;4233191;82;22367;-82
2022/05/28 04:30:57;;;;;;;20.10;15.68;;;;;;;9.51;97.97;98758.82;4237220;83;21489;-83
2022/05/28 04:37:01;;;;;;;18.37;12.30;;;;;;;9.59;97.10;98754.22;4181065;83;21138;-82
2022/05/28 04:43:10;;;;;;;19.25;15.15;;;;;;;9.63;97.89;98754.26;4153801;84;21507;-82
2022/05/28 04:49:14;;;;;;;21.55;15.10;;;;;;;9.76;98.08;98753.61;4166519;83;21084;-82
2022/05/28 04:55:15;;;;;;;15.23;11.80;;;;;;;9.85;98.04;98744.52;4178322;84;20991;-83
2022/05/28 05:01:21;;;;;;;14.33;11.33;;;;;;;9.97;98.01;98747.00;4159655;83;21665;-83
2022/05/28 05:07:24;;;;;;;22.15;11.35;;;;;;;10.14;98.18;98749.14;4181760;84;21597;-82
2022/05/28 05:13:25;;;;;;;16.67;9.63;;;;;;;10.38;98.26;98750.52;4193786;84;21795;-82
2022/05/28 05:19:27;;;;;;;9.75;8.00;;;;;;;10.59;98.39;98751.45;4155369;84;21078;-82
2022/05/28 05:25:28;;;;;;;13.13;9.70;;;;;;;10.74;97.60;98750.36;4142250;84;21623;-84
2022/05/28 05:31:30;;;;;;;11.93;7.58;;;;;;;10.90;97.80;98745.39;4141930;85;21089;-83
2022/05/28 05:37:31;;;;;;;12.20;5.20;;;;;;;11.03;97.72;98756.23;4135808;85;21088;-83
2022/05/28 05:43:32;;;;;;;8.15;4.92;;;;;;;11.19;97.27;98749.64;4145695;85;21135;-84
2022/05/28 05:49:34;;;;;;;6.97;4.45;;;;;;;11.27;96.79;98757.52;4146154;85;21478;-82
2022/05/28 05:55:35;;;;;;;10.05;3.75;;;;;;;11.38;95.82;98743.28;4138126;85;21392;-83
2022/05/28 06:01:37;;;;;;;6.30;3.17;;;;;;;11.50;95.78;98764.85;4149330;85;21114;-82
2022/05/28 06:07:39;;;;;;;7.70;3.67;;;;;;;11.61;95.72;98764.30;4112907;85;21052;-82
2022/05/28 06:13:41;;;;;;;9.30;3.50;;;;;;;11.77;95.49;98764.78;4152758;85;21052;-83
2022/05/28 06:19:44;;;;;;;11.12;3.77;;;;;;;11.84;94.82;98760.67;4129911;85;21056;-81
2022/05/28 06:25:46;;;;;;;5.95;3.40;;;;;;;11.97;94.36;98759.14;4149530;84;21023;-81
2022/05/28 06:31:47;;;;;;;8.73;3.10;;;;;;;12.08;94.67;98756.41;4130465;85;21571;-82
2022/05/28 06:37:52;;;;;;;7.90;3.12;;;;;;;12.11;93.20;98763.27;4120998;84;21011;-82
2022/05/28 06:43:53;;;;;;;14.15;3.37;;;;;;;12.20;92.08;98762.30;4091953;85;21083;-86
2022/05/28 06:56:19;;;;;;;5.53;2.50;;;;;;;12.99;90.46;98752.82;4187871;85;20987;-81
2022/05/28 07:02:21;;;;;;;5.75;2.45;;;;;;;13.54;89.57;98751.88;4187813;85;21055;-80
2022/05/28 07:08:26;;;;;;;8.83;2.45;;;;;;;14.08;89.30;98753.92;4141363;85;20995;-83
2022/05/28 07:14:28;;;;;;;6.92;2.85;;;;;;;14.32;88.35;98739.03;4235338;82;27377;-82
2022/05/28 07:20:30;;;;;;;4.25;2.15;;;;;;;14.43;87.73;98746.61;4226053;83;21031;-82
2022/05/28 07:26:37;;;;;;;5.47;2.02;;;;;;;14.85;86.03;98737.95;4224722;82;21029;-82
2022/05/28 07:32:47;;;;;;;5.75;1.80;;;;;;;15.20;84.67;98739.76;4258092;84;21996;-83
2022/05/28 07:38:51;;;;;;;6.72;1.40;;;;;;;15.48;83.70;98725.66;4287543;82;21486;-82
2022/05/28 07:44:54;;;;;;;9.15;1.52;;;;;;;15.66;82.63;98734.47;4262615;81;21014;-82
2022/05/28 07:50:56;;;;;;;3.60;1.05;;;;;;;15.77;81.10;98729.41;4275675;81;21049;-81
2022/05/28 07:56:57;;;;;;;9.50;1.27;;;;;;;15.75;79.02;98719.38;4284706;81;21615;-82
2022/05/28 08:03:02;;;;;;;6.28;1.25;;;;;;;15.76;77.69;98718.17;4274098;81;21066;-82
2022/05/28 08:09:07;;;;;;;2.75;1.05;;;;;;;15.72;76.75;98712.73;4279478;81;21082;-80
2022/05/28 08:15:16;;;;;;;9.73;1.00;;;;;;;15.54;75.44;98714.34;4280611;81;21010;-82
2022/05/28 08:28:20;;;;;;;3.65;0.85;;;;;;;15.85;73.65;98706.80;4299182;81;21516;-82
2022/05/28 08:34:28;;;;;;;5.45;1.17;;;;;;;16.15;73.63;98694.31;4301096;81;21024;-81
2022/05/28 08:47:47;;;;;;;4.28;1.20;;;;;;;16.14;71.32;98703.02;4250521;82;21008;-82
2022/05/28 09:01:02;;;;;;;5.85;1.30;;;;;;;16.40;69.83;98698.84;4274091;81;20952;-81
2022/05/28 09:07:14;;;;;;;4.22;0.82;;;;;;;16.32;68.15;98702.16;4278933;81;21016;-82
2022/05/28 09:13:43;;;;;;;4.35;1.07;;;;;;;16.14;68.11;98696.13;4204304;82;20973;-82
2022/05/28 09:20:01;;;;;;;3.95;0.80;;;;;;;16.58;66.90;98699.36;4303921;83;21913;-83
2022/05/28 09:40:08;;;;;;;6.80;1.22;;;;;;;17.18;62.87;98696.22;4265383;82;21137;-82
2022/05/28 09:46:50;;;;;;;3.22;1.00;;;;;;;16.60;64.14;98698.31;4308763;81;21055;-82
2022/05/28 10:00:10;;;;;;;3.67;1.27;;;;;;;17.82;62.60;98672.13;4131679;84;21157;-83
2022/05/28 10:12:54;;;;;;;4.33;1.00;;;;;;;19.10;59.92;98652.44;4131389;84;21043;-82
2022/05/28 10:19:59;;;;;;;4.72;1.00;;;;;;;19.59;59.06;98644.08;4153602;84;21078;-82
2022/05/28 10:26:49;;;;;;;4.42;1.50;;;;;;;19.12;57.44;98641.06;4086569;84;21082;-83
2022/05/28 10:33:12;;;;;;;4.78;0.90;;;;;;;18.45;57.03;98647.07;4156968;83;21067;-84
2022/05/28 10:39:21;;;;;;;3.83;1.00;;;;;;;18.70;55.91;98639.48;4255288;82;20960;-82
2022/05/28 10:45:57;;;;;;;3.40;0.80;;;;;;;19.56;55.05;98636.02;4300383;82;20990;-83
2022/05/28 10:52:55;;;;;;;4.30;1.12;;;;;;;19.71;54.08;98637.75;4192810;83;21018;-83
2022/05/28 10:59:56;;;;;;;3.35;1.15;;;;;;;18.58;54.12;98652.68;4276923;81;21056;-84
2022/05/28 11:06:55;;;;;;;6.70;1.07;;;;;;;17.79;54.00;98655.00;4137076;82;21070;-85
2022/05/28 11:13:46;;;;;;;5.08;1.00;;;;;;;17.87;54.64;98662.56;4259599;82;21053;-83
2022/05/28 11:33:48;;;;;;;2.65;0.80;;;;;;;15.87;54.51;98722.95;4067985;86;21039;-82
2022/05/28 11:40:42;;;;;;;1.87;0.60;;;;;;;15.24;54.97;98727.28;3920738;88;21090;-83
2022/05/28 11:47:42;;;;;;;1.47;0.70;;;;;;;14.79;56.60;98710.66;3966519;88;21140;-81
2022/05/28 11:54:06;;;;;;;4.30;0.80;;;;;;;14.71;57.35;98703.07;4087829;84;21166;-83
2022/05/28 12:15:12;;;;;;;4.60;1.40;;;;;;;17.14;56.70;98660.17;4057150;87;21050;-83
2022/05/28 12:28:20;;;;;;;3.85;1.10;;;;;;;15.69;55.89;98732.88;4090391;85;21706;-82
2022/05/28 12:34:27;;;;;;;6.33;1.37;;;;;;;15.18;56.58;98751.78;4162971;83;22315;-82
2022/05/28 12:40:59;;;;;;;2.40;1.05;;;;;;;14.63;57.48;98777.33;4166533;83;21564;-84
2022/05/28 12:47:01;;;;;;;6.90;0.98;;;;;;;13.86;58.95;98751.11;4197829;83;21006;-82
2022/05/28 12:53:19;;;;;;;1.60;0.93;;;;;;;14.02;61.17;98733.52;4167230;83;21013;-79
2022/05/28 13:13:19;;;;;;;1.27;0.70;;;;;;;14.49;62.33;98718.23;4214924;83;21458;-83
2022/05/28 13:19:48;;;;;;;2.50;0.50;;;;;;;14.61;61.75;98725.22;4206770;83;21060;-83
2022/05/28 13:25:58;;;;;;;3.75;0.70;;;;;;;14.59;61.85;98727.00;4189228;82;21040;-84
2022/05/28 13:32:20;;;;;;;2.65;0.62;;;;;;;14.74;62.28;98710.52;4250384;82;21039;-84
2022/05/28 13:38:28;;;;;;;3.58;0.68;;;;;;;14.85;61.84;98700.17;4277099;81;20982;-83
2022/05/28 13:44:30;;;;;;;2.87;1.07;;;;;;;15.03;61.48;98693.88;4271318;81;22067;-82
2022/05/28 13:50:34;;;;;;;2.92;0.82;;;;;;;15.26;61.10;98685.72;4273480;81;21887;-83
2022/05/28 13:56:36;;;;;;;1.32;0.60;;;;;;;15.42;61.23;98685.15;4285902;81;21531;-83
2022/05/28 14:02:38;;;;;;;3.83;0.85;;;;;;;15.37;60.09;98691.09;4269334;81;20984;-82
2022/05/28 14:08:43;;;;;;;6.53;0.60;;;;;;;14.89;58.84;98746.98;4282700;81;21011;-80
2022/05/28 14:14:46;;;;;;;6.92;0.80;;;;;;;13.83;59.15;98769.80;4277837;81;20995;-83
2022/05/28 14:20:48;;;;;;;7.47;0.75;;;;;;;12.66;61.37;98796.63;4279674;81;21614;-84
2022/05/28 14:26:59;;;;;;;3.60;0.90;;;;;;;12.11;63.33;98800.89;4280709;81;21046;-83
2022/05/28 14:33:04;;;;;;;5.28;1.45;;;;;;;11.60;65.68;98804.45;4290314;81;21047;-82
2022/05/28 14:39:14;;;;;;;7.15;1.02;;;;;;;11.04;65.99;98802.19;4248135;82;21118;-82
2022/05/28 14:45:34;;;;;;;3.05;0.85;;;;;;;10.95;68.34;98792.95;4281934;81;21585;-82
2022/05/28 14:51:39;;;;;;;3.00;1.10;;;;;;;11.25;68.44;98779.03;4213177;83;21072;-83
2022/05/28 14:57:46;;;;;;;2.75;0.95;;;;;;;11.46;68.24;98769.55;4243042;82;21003;-82
2022/05/28 15:03:47;;;;;;;1.82;0.78;;;;;;;11.65;68.80;98757.50;4249233;82;21001;-83
2022/05/28 15:09:51;;;;;;;2.40;0.70;;;;;;;11.71;68.44;98749.89;4249227;82;21043;-84
2022/05/28 15:15:56;;;;;;;3.17;0.95;;;;;;;11.83;68.63;98750.88;4281064;81;21018;-82
2022/05/28 15:22:11;;;;;;;8.45;0.95;;;;;;;11.94;68.06;98748.95;4288113;81;20970;-82
2022/05/28 15:28:14;;;;;;;3.92;0.80;;;;;;;12.00;67.92;98736.98;4232993;82;21022;-82
2022/05/28 15:34:17;;;;;;;3.50;0.90;;;;;;;12.13;67.90;98735.45;4257587;82;21088;-82
2022/05/28 15:40:26;;;;;;;2.02;1.00;;;;;;;12.28;68.60;98737.01;4212699;84;20973;-82
2022/05/28 15:46:25;;;;;;;5.37;1.30;;;;;;;12.50;68.87;98726.22;4204271;84;21043;-82
2022/05/28 15:52:26;;;;;;;2.35;1.22;;;;;;;12.65;68.77;98725.05;4196364;83;21083;-80
2022/05/28 15:58:36;;;;;;;4.90;1.50;;;;;;;12.65;68.64;98722.30;4203488;84;21583;-81
2022/05/28 16:04:37;;;;;;;3.02;1.50;;;;;;;12.64;68.70;98723.45;4199652;83;21032;-81
2022/05/28 16:10:40;;;;;;;3.55;1.40;;;;;;;12.60;68.73;98723.48;4205861;84;21929;-82
2022/05/28 16:16:41;;;;;;;3.17;1.60;;;;;;;12.68;69.43;98724.25;4259093;82;21054;-81
2022/05/28 16:22:43;;;;;;;3.42;1.77;;;;;;;12.82;68.62;98717.94;4246563;82;21122;-81
2022/05/28 16:28:49;;;;;;;4.53;2.00;;;;;;;12.95;68.23;98713.59;4224320;81;21051;-82
2022/05/28 16:34:51;;;;;;;3.30;1.77;;;;;;;13.03;68.42;98713.19;4258959;83;20980;-81
2022/05/28 16:40:55;;;;;;;7.05;2.10;;;;;;;13.06;68.91;98716.52;4210349;83;21317;-81
2022/05/28 16:46:58;;;;;;;3.15;1.62;;;;;;;13.10;69.47;98720.05;4230760;83;21581;-82
2022/05/28 16:52:59;;;;;;;4.28;1.60;;;;;;;13.01;69.68;98721.06;4224429;82;21043;-80
2022/05/28 16:59:01;;;;;;;3.53;1.23;;;;;;;12.95;69.82;98721.22;4104048;82;9999882;-80
2022/05/28 17:05:08;;;;;;;6.60;1.60;;;;;;;13.03;69.99;98724.18;4252555;83;22000;-81
2022/05/28 17:11:11;;;;;;;;;;;;;;;13.10;69.99;98730.25;4171018;85;21012;-81
2022/05/28 17:17:16;;;;;;;2.22;1.00;;;;;;;13.05;69.34;98725.95;4111864;85;20116;-82
2022/05/28 17:23:22;;;;;;;4.20;1.32;;;;;;;12.99;68.50;98730.26;4072019;87;21033;-82
2022/05/28 17:29:23;;;;;;;2.52;1.00;;;;;;;12.91;68.10;98746.56;4154636;84;21611;-81
2022/05/28 17:35:28;;;;;;;3.22;1.25;;;;;;;12.80;67.71;98739.52;4115520;86;21662;-81
2022/05/28 17:41:31;;;;;;;4.42;1.20;;;;;;;12.77;67.79;98747.97;4116162;85;20988;-82
2022/05/28 17:47:34;;;;;;;2.15;0.90;;;;;;;12.70;68.48;98758.19;4116909;85;21864;-81
2022/05/28 17:53:39;;;;;;;1.95;1.32;;;;;;;12.65;69.41;98764.86;4249416;82;21062;-81
2022/05/28 17:59:47;;;;;;;4.30;1.65;;;;;;;12.57;68.60;98764.66;4274087;81;21027;-81
2022/05/28 18:05:49;;;;;;;3.70;1.50;;;;;;;12.58;68.59;98763.48;4153579;85;21001;-81
2022/05/28 18:11:56;;;;;;;3.52;1.80;;;;;;;12.55;68.74;98769.76;4244374;83;21067;-81
2022/05/28 18:17:58;;;;;;;5.05;1.50;;;;;;;12.45;69.49;98771.91;4209973;82;21422;-81
2022/05/28 18:24:02;;;;;;;6.85;1.90;;;;;;;12.33;70.05;98773.67;4271891;82;21126;-81
2022/05/28 18:30:08;;;;;;;7.60;2.42;;;;;;;12.10;69.58;98780.13;4268327;82;21009;-81
2022/05/28 18:36:23;;;;;;;7.05;2.67;;;;;;;11.90;69.92;98789.89;4220544;83;21007;-81
2022/05/28 18:42:59;;;;;;;5.78;2.20;;;;;;;11.71;70.00;98786.11;4275930;83;22049;-81
2022/05/28 18:49:01;;;;;;;7.08;3.00;;;;;;;11.58;70.24;98790.33;4231337;82;21074;-81
2022/05/28 18:55:03;;;;;;;4.60;1.90;;;;;;;11.49;70.51;98810.47;4213416;82;21852;-81
2022/05/28 19:01:04;;;;;;;7.95;2.25;;;;;;;11.34;70.20;98810.98;4271155;82;21103;-81
2022/05/28 19:07:11;;;;;;;4.40;1.95;;;;;;;11.22;70.74;98817.37;4259543;82;20993;-81
2022/05/28 19:13:14;;;;;;;;;;;;;;;11.13;71.05;98833.37;4327644;82;21012;-81
2022/05/28 19:19:18;;;;;;;6.30;2.30;;;;;;;10.90;70.51;98839.87;4248296;83;20111;-81
2022/05/28 19:31:45;;;;;;;5.05;2.50;;;;;;;10.68;71.02;98857.30;4260649;81;20991;-81
2022/05/28 19:37:49;;;;;;;4.35;2.55;;;;;;;10.57;71.70;98857.78;4273076;81;20992;-81
2022/05/28 19:43:55;;;;;;;4.92;3.15;;;;;;;10.45;72.17;98860.81;4279971;81;21510;-81
2022/05/28 19:49:57;;;;;;;4.70;2.50;;;;;;;10.37;72.34;98859.73;4274500;81;21022;-81
2022/05/28 19:56:00;;;;;;;7.97;3.33;;;;;;;10.30;73.02;98875.53;4282302;81;20987;-81
2022/05/28 20:02:04;;;;;;;6.03;3.40;;;;;;;10.23;72.75;98867.80;4263449;81;21135;-84
2022/05/28 20:08:06;;;;;;;6.25;2.83;;;;;;;10.20;72.54;98876.77;4270291;81;21019;-82
2022/05/28 20:14:13;;;;;;;5.53;3.10;;;;;;;10.18;72.32;98880.48;4264429;81;21074;-82
2022/05/28 20:20:20;;;;;;;6.58;3.25;;;;;;;10.20;72.41;98874.03;4284006;82;20979;-81
2022/05/28 20:26:28;;;;;;;6.60;2.83;;;;;;;10.25;72.78;98873.70;4234768;81;21883;-81
2022/05/28 20:32:31;;;;;;;6.58;3.52;;;;;;;10.26;73.37;98878.80;4238564;83;21012;-82
2022/05/28 20:38:33;;;;;;;7.28;3.37;;;;;;;10.21;73.82;98877.75;4212498;84;21879;-81
2022/05/28 20:44:34;;;;;;;7.47;3.50;;;;;;;10.17;73.24;98868.73;4218440;83;21052;-81
2022/05/28 20:50:39;;;;;;;4.30;2.98;;;;;;;10.12;72.96;98860.86;4198514;83;21003;-81
2022/05/28 20:56:43;;;;;;;9.68;3.70;;;;;;;10.07;73.40;98856.30;4251090;83;21019;-81
2022/05/28 21:02:48;;;;;;;6.35;3.50;;;;;;;10.04;74.25;98840.64;4224175;83;21066;-81
2022/05/28 21:08:50;;;;;;;10.00;4.67;;;;;;;9.98;73.39;98847.01;4209327;83;21019;-81
2022/05/28 21:14:51;;;;;;;10.05;4.17;;;;;;;9.86;73.23;98858.20;4230999;83;21577;-81
2022/05/28 21:20:53;;;;;;;6.78;3.92;;;;;;;9.83;73.40;98856.22;4221612;83;20999;-81
2022/05/28 21:33:15;;;;;;;6.95;3.00;;;;;;;9.85;73.96;98846.28;4283651;81;21058;-81
2022/05/28 21:39:16;;;;;;;7.05;3.22;;;;;;;9.78;73.63;98837.98;4246999;81;21082;-81
2022/05/28 21:45:20;;;;;;;10.55;3.58;;;;;;;9.72;73.29;98834.80;4265562;81;21026;-81
2022/05/28 21:51:26;;;;;;;9.50;3.62;;;;;;;9.67;73.39;98827.50;4267637;81;21546;-81
2022/05/28 21:57:29;;;;;;;5.92;3.10;;;;;;;9.59;73.65;98825.27;4270402;81;21037;-82
2022/05/28 22:03:33;;;;;;;7.42;3.52;;;;;;;9.42;74.17;98829.36;4263770;81;21030;-81
2022/05/28 22:09:35;;;;;;;8.00;3.60;;;;;;;9.32;74.96;98821.01;4281223;81;21028;-82
2022/05/28 22:15:36;;;;;;;7.72;4.33;;;;;;;9.14;75.39;98817.27;4276887;81;21468;-81
2022/05/28 22:21:40;;;;;;;10.10;4.08;;;;;;;9.13;75.74;98817.83;4271444;81;21563;-81
2022/05/28 22:27:44;;;;;;;9.05;4.80;;;;;;;9.12;75.86;98815.48;4183180;83;21075;-81
2022/05/28 22:33:46;;;;;;;7.55;4.17;;;;;;;8.87;75.76;98808.88;4265917;81;22185;-81
2022/05/28 22:39:48;;;;;;;9.28;4.40;;;;;;;8.75;76.59;98806.36;4247769;82;21034;-81
2022/05/28 22:45:50;;;;;;;8.03;4.22;;;;;;;8.51;76.45;98798.00;4270912;81;21531;-80
2022/05/28 22:51:59;;;;;;;7.78;3.95;;;;;;;8.45;77.34;98802.19;4268483;81;20991;-80
2022/05/28 22:58:04;;;;;;;9.78;4.70;;;;;;;8.26;77.21;98795.44;4272208;81;21079;-80
2022/05/28 23:04:05;;;;;;;8.70;4.75;;;;;;;8.22;77.73;98785.59;4272885;81;21086;-81
2022/05/28 23:10:10;;;;;;;8.58;4.08;;;;;;;8.21;78.56;98781.27;4263109;81;21101;-81
2022/05/28 23:16:13;;;;;;;7.40;4.37;;;;;;;8.21;78.63;98774.45;4263165;81;20969;-80
2022/05/28 23:22:14;;;;;;;10.03;4.55;;;;;;;7.99;78.39;98782.28;4263708;81;21054;-80
2022/05/28 23:28:31;;;;;;;8.03;3.70;;;;;;;7.82;78.89;98772.42;4277891;81;21075;-81
2022/05/28 23:34:35;;;;;;;7.47;4.17;;;;;;;7.74;79.58;98770.71;4228632;82;21070;-80
2022/05/28 23:40:37;;;;;;;7.55;4.03;;;;;;;7.77;79.79;98763.17;4224428;83;21019;-80
2022/05/28 23:46:50;;;;;;;10.13;4.42;;;;;;;7.84;80.31;98760.03;4228816;83;21030;-81
2022/05/28 23:52:56;;;;;;;8.53;4.25;;;;;;;7.83;79.80;98758.44;4200640;83;21067;-81
2022/05/28 23:59:03;;;;;;;10.43;4.30;;;;;;;7.68;80.35;98753.09;4134050;85;21024;-80
